This is the latest recevied weather packets stored in our database for station/object N4OGP-WX. If no packets are shown the sender has not sent any weather packets the latest 10 day(s).
| Time | Temp. | Humidity | Pressure | Rain* | Wind** | Luminosity | Snow |
|---|---|---|---|---|---|---|---|
| 1778282669 | 20° C | 94% | 1010.9 hPa | 0 mm | - | - | - |
| 1778282579 | 23.89° C | 42% | 1020.4 hPa | 0 mm | - | - | - |
| 1778282519 | 20° C | 94% | 1011.1 hPa | 0 mm | - | - | - |
| 1778282459 | 20° C | 94% | 1011.2 hPa | 0 mm | - | - | - |
| 1778282369 | 23.89° C | 42% | 1020.4 hPa | 0 mm | - | - | - |
| 1778282279 | 20° C | 94% | 1011.3 hPa | 0 mm | - | - | - |
| 1778282219 | 23.89° C | 42% | 1020.4 hPa | 0 mm | - | - | - |
| 1778282129 | 20° C | 93% | 1011.2 hPa | 0 mm | - | - | - |
| 1778282069 | 20° C | 94% | 1011.1 hPa | 0 mm | - | - | - |
| 1778282009 | 20° C | 93% | 1011.2 hPa | 0 mm | - | - | - |
| 1778281919 | 23.89° C | 42% | 1020.4 hPa | 0 mm | - | - | - |
| 1778281829 | 23.89° C | 42% | 1020.4 hPa | 0 mm | - | - | - |
| 1778281739 | 20.56° C | 93% | 1011.1 hPa | 0 mm | - | - | - |
| 1778281649 | 23.89° C | 42% | 1020.4 hPa | 0 mm | - | - | - |
| 1778281589 | 23.89° C | 42% | 1020.4 hPa | 0 mm | - | - | - |
| 1778281499 | 20.56° C | 93% | 1011.1 hPa | 0 mm | - | - | - |
| 1778281439 | 20.56° C | 93% | 1011.1 hPa | 0 mm | - | - | - |
| 1778281379 | 20.56° C | 93% | 1011.1 hPa | 0 mm | - | - | - |
| 1778281319 | 23.89° C | 42% | 1020.4 hPa | 0 mm | - | - | - |
| 1778281259 | 23.89° C | 42% | 1020.4 hPa | 0 mm | - | - | - |
| 1778281169 | 20.56° C | 93% | 1011.3 hPa | 0 mm | - | - | - |
| 1778281109 | 23.89° C | 42% | 1020.4 hPa | 0 mm | - | - | - |
| 1778281019 | 23.89° C | 42% | 1020.4 hPa | 0 mm | - | - | - |
| 1778280959 | 23.89° C | 42% | 1020.4 hPa | 0 mm | - | - | - |
| 1778280899 | 23.89° C | 42% | 1020.4 hPa | 0 mm | - | - | - |
* Rain latest hour (hover to see other rain measurements)
** Current wind speed in m/s (hover to see current wind gust speed)